createdAt,value
2018-08-12T00:01:31.834Z,100645.23
2018-08-12T00:03:59.929Z,100646.03
2018-08-12T00:06:28.038Z,100645.22
2018-08-12T00:08:56.301Z,100646.38
2018-08-12T00:11:25.359Z,100637.75
2018-08-12T00:13:53.508Z,100637.02
2018-08-12T00:16:21.711Z,100640.16
2018-08-12T00:18:49.955Z,100639.56
2018-08-12T00:21:18.025Z,100630.16
2018-08-12T00:23:46.126Z,100631.75
2018-08-12T00:26:14.204Z,100630.73
2018-08-12T00:28:42.585Z,100629.30
2018-08-12T00:31:16.132Z,100627.52
2018-08-12T00:33:48.996Z,100627.11
2018-08-12T00:36:17.237Z,100628.27
2018-08-12T00:38:45.461Z,100626.19
2018-08-12T00:41:13.564Z,100629.03
2018-08-12T00:43:41.685Z,100627.37
2018-08-12T00:46:09.769Z,100629.63
2018-08-12T00:48:37.822Z,100623.08
2018-08-12T00:51:06.300Z,100617.59
2018-08-12T00:53:34.382Z,100618.80
2018-08-12T00:56:02.835Z,100613.87
2018-08-12T00:58:30.989Z,100619.63
2018-08-12T01:00:59.767Z,100615.10
2018-08-12T01:03:28.178Z,100607.05
2018-08-12T01:05:56.442Z,100611.23
2018-08-12T01:08:25.428Z,100609.11
2018-08-12T01:10:53.554Z,100612.76
2018-08-12T01:13:21.637Z,100607.64
2018-08-12T01:15:49.737Z,100611.34
2018-08-12T01:18:17.844Z,100611.20
2018-08-12T01:20:45.984Z,100612.35
2018-08-12T01:23:14.188Z,100602.34
2018-08-12T01:25:42.257Z,100599.91
2018-08-12T01:28:10.401Z,100602.83
2018-08-12T01:30:38.529Z,100606.53
2018-08-12T01:33:07.023Z,100607.11
2018-08-12T01:35:35.078Z,100608.95
2018-08-12T01:38:03.214Z,100610.59
2018-08-12T01:40:31.302Z,100613.94
2018-08-12T01:42:59.395Z,100605.90
2018-08-12T01:45:27.515Z,100602.61
2018-08-12T01:47:55.739Z,100607.02
2018-08-12T01:50:23.813Z,100608.06
2018-08-12T01:52:51.910Z,100611.14
2018-08-12T01:55:20.154Z,100607.23
2018-08-12T01:57:48.199Z,100604.78
2018-08-12T02:00:18.929Z,100602.13
2018-08-12T02:02:47.575Z,100604.64
2018-08-12T02:05:16.100Z,100602.14
2018-08-12T02:07:44.341Z,100602.52
2018-08-12T02:10:12.453Z,100594.26
2018-08-12T02:12:40.829Z,100591.86
2018-08-12T02:15:10.147Z,100587.31
2018-08-12T02:17:38.510Z,100581.94
2018-08-12T02:20:07.146Z,100589.53
2018-08-12T02:22:35.200Z,100580.48
2018-08-12T02:25:03.363Z,100584.23
2018-08-12T02:27:31.444Z,100587.16
2018-08-12T02:29:59.625Z,100577.33
2018-08-12T02:32:27.858Z,100575.95
2018-08-12T02:34:55.943Z,100569.42
2018-08-12T02:37:23.997Z,100567.87
2018-08-12T02:39:52.244Z,100571.50
2018-08-12T02:42:20.484Z,100573.27
2018-08-12T02:44:48.645Z,100573.27
2018-08-12T02:47:16.822Z,100581.26
2018-08-12T02:49:44.956Z,100572.28
2018-08-12T02:52:13.143Z,100567.91
2018-08-12T02:54:41.443Z,100564.51
2018-08-12T02:57:09.535Z,100556.89
2018-08-12T02:59:37.605Z,100561.73
2018-08-12T03:02:05.820Z,100555.72
2018-08-12T03:04:33.938Z,100558.56
2018-08-12T03:07:02.095Z,100565.05
2018-08-12T03:09:30.198Z,100564.10
2018-08-12T03:11:58.305Z,100564.06
2018-08-12T03:14:26.342Z,100556.53
2018-08-12T03:16:54.515Z,100552.13
2018-08-12T03:19:22.636Z,100550.70
2018-08-12T03:21:50.736Z,100555.82
2018-08-12T03:24:18.815Z,100551.44
2018-08-12T03:26:46.879Z,100545.95
2018-08-12T03:29:14.990Z,100550.58
2018-08-12T03:31:43.090Z,100545.34
2018-08-12T03:34:11.225Z,100542.60
2018-08-12T03:36:39.481Z,100544.53
2018-08-12T03:39:09.056Z,100542.86
2018-08-12T03:41:44.530Z,100544.58
2018-08-12T03:44:12.606Z,100535.78
2018-08-12T03:46:40.660Z,100541.02
2018-08-12T03:49:08.729Z,100534.75
2018-08-12T03:51:36.818Z,100533.51
2018-08-12T03:54:04.904Z,100528.41
2018-08-12T03:56:33.052Z,100524.84
2018-08-12T03:59:01.265Z,100527.54
2018-08-12T04:01:29.351Z,100529.84
2018-08-12T04:03:57.422Z,100520.59
2018-08-12T04:06:26.155Z,100522.98
2018-08-12T04:08:54.286Z,100521.27
2018-08-12T04:11:22.389Z,100519.62
2018-08-12T04:13:50.441Z,100524.91
2018-08-12T04:16:18.598Z,100522.00
2018-08-12T04:18:47.122Z,100517.41
2018-08-12T04:21:15.303Z,100517.54
2018-08-12T04:23:43.477Z,100518.27
2018-08-12T04:26:11.565Z,100520.84
2018-08-12T04:28:39.609Z,100513.00
2018-08-12T04:31:07.682Z,100516.19
2018-08-12T04:33:35.727Z,100509.14
2018-08-12T04:36:03.810Z,100508.47
2018-08-12T04:38:31.882Z,100509.23
2018-08-12T04:40:59.945Z,100504.55
2018-08-12T04:43:28.038Z,100506.44
2018-08-12T04:45:56.402Z,100501.89
2018-08-12T04:48:24.466Z,100504.97
2018-08-12T04:50:52.540Z,100501.07
2018-08-12T04:53:20.593Z,100508.62
2018-08-12T04:55:48.754Z,100507.04
2018-08-12T04:58:16.963Z,100507.88
2018-08-12T05:00:45.042Z,100501.12
2018-08-12T05:03:13.161Z,100505.33
2018-08-12T05:05:41.366Z,100507.41
2018-08-12T05:08:09.530Z,100501.55
2018-08-12T05:10:37.653Z,100503.70
2018-08-12T05:13:05.870Z,100509.69
2018-08-12T05:15:34.082Z,100511.87
2018-08-12T05:18:02.338Z,100516.08
2018-08-12T05:20:30.498Z,100512.14
2018-08-12T05:22:58.704Z,100506.30
2018-08-12T05:25:26.846Z,100501.70
2018-08-12T05:27:55.043Z,100504.50
2018-08-12T05:30:23.117Z,100505.05
2018-08-12T05:32:51.241Z,100507.50
2018-08-12T05:35:19.363Z,100498.88
2018-08-12T05:37:47.570Z,100504.75
2018-08-12T05:40:16.742Z,100498.08
2018-08-12T05:42:44.902Z,100504.86
2018-08-12T05:45:13.070Z,100492.62
2018-08-12T05:47:41.183Z,100489.69
2018-08-12T05:50:10.466Z,100491.70
2018-08-12T05:52:38.598Z,100487.86
2018-08-12T05:55:07.202Z,100490.04
2018-08-12T05:57:35.360Z,100487.00
2018-08-12T06:00:03.649Z,100483.78
2018-08-12T06:02:31.731Z,100482.64
2018-08-12T06:04:59.932Z,100479.03
2018-08-12T06:07:28.001Z,100478.63
2018-08-12T06:09:56.951Z,100473.58
2018-08-12T06:12:25.120Z,100470.01
2018-08-12T06:14:53.223Z,100469.47
2018-08-12T06:17:21.508Z,100470.31
2018-08-12T06:19:49.658Z,100472.73
2018-08-12T06:22:17.771Z,100469.61
2018-08-12T06:27:24.443Z,100462.78
2018-08-12T06:29:52.544Z,100474.16
2018-08-12T06:32:20.749Z,100474.02
2018-08-12T06:34:48.782Z,100469.22
2018-08-12T06:37:16.959Z,100466.15
2018-08-12T06:39:45.138Z,100464.09
2018-08-12T06:42:13.406Z,100463.41
2018-08-12T06:44:41.550Z,100466.66
2018-08-12T06:47:09.790Z,100469.10
2018-08-12T06:49:37.918Z,100465.48
2018-08-12T06:52:06.138Z,100467.73
2018-08-12T06:54:34.260Z,100464.77
2018-08-12T06:57:02.400Z,100468.53
2018-08-12T06:59:30.538Z,100469.53
2018-08-12T07:01:58.676Z,100465.75
2018-08-12T07:04:27.514Z,100467.24
2018-08-12T07:06:56.099Z,100460.64
2018-08-12T07:09:24.954Z,100454.85
2018-08-12T07:11:53.070Z,100459.21
2018-08-12T07:14:21.340Z,100461.58
2018-08-12T07:16:49.406Z,100456.95
2018-08-12T07:19:17.506Z,100450.36
2018-08-12T07:21:45.622Z,100452.11
2018-08-12T07:24:13.684Z,100445.38
2018-08-12T07:26:41.771Z,100438.55
2018-08-12T07:29:09.856Z,100440.67
2018-08-12T07:31:37.952Z,100441.19
2018-08-12T07:34:06.072Z,100440.42
2018-08-12T07:36:34.316Z,100429.55
2018-08-12T07:39:03.305Z,100435.25
2018-08-12T07:41:31.466Z,100429.80
2018-08-12T07:43:59.687Z,100427.02
2018-08-12T07:46:27.786Z,100417.74
2018-08-12T07:48:55.923Z,100417.44
2018-08-12T07:51:24.001Z,100409.34
2018-08-12T07:53:52.138Z,100411.59
2018-08-12T07:56:20.278Z,100410.09
2018-08-12T07:58:48.385Z,100408.89
2018-08-12T08:01:16.438Z,100409.00
2018-08-12T08:03:44.531Z,100403.88
2018-08-12T08:06:12.600Z,100408.62
2018-08-12T08:08:40.679Z,100407.55
2018-08-12T08:11:08.848Z,100404.69
2018-08-12T08:13:36.910Z,100409.02
2018-08-12T08:16:05.033Z,100397.13
2018-08-12T08:18:33.310Z,100406.78
2018-08-12T08:21:01.390Z,100406.52
2018-08-12T08:23:29.487Z,100409.39
2018-08-12T08:25:59.650Z,100401.36
2018-08-12T08:28:27.790Z,100406.50
2018-08-12T08:30:55.888Z,100405.34
2018-08-12T08:33:24.034Z,100396.76
2018-08-12T08:35:52.146Z,100395.06
2018-08-12T08:38:20.226Z,100395.91
2018-08-12T08:40:48.444Z,100392.05
2018-08-12T08:43:16.603Z,100388.23
2018-08-12T08:45:44.737Z,100391.73
2018-08-12T08:48:12.851Z,100387.84
2018-08-12T08:50:41.095Z,100383.95
2018-08-12T08:53:09.239Z,100380.09
2018-08-12T08:55:37.411Z,100375.40
2018-08-12T08:58:05.528Z,100380.13
2018-08-12T09:00:33.897Z,100374.12
2018-08-12T09:03:02.017Z,100368.11
2018-08-12T09:05:30.180Z,100370.71
2018-08-12T09:07:58.402Z,100363.38
2018-08-12T09:10:26.435Z,100362.93
2018-08-12T09:12:54.709Z,100362.95
2018-08-12T09:15:22.902Z,100360.34
2018-08-12T09:17:51.022Z,100352.15
2018-08-12T09:20:20.582Z,100347.39
2018-08-12T09:22:48.702Z,100343.05
2018-08-12T09:25:17.129Z,100343.50
2018-08-12T09:27:45.260Z,100340.45
2018-08-12T09:30:15.418Z,100340.92
2018-08-12T09:32:44.134Z,100336.14
2018-08-12T09:35:12.267Z,100336.16
2018-08-12T09:37:40.462Z,100333.98
2018-08-12T09:40:11.209Z,100326.63
2018-08-12T09:42:39.677Z,100320.13
2018-08-12T09:45:09.808Z,100320.53
2018-08-12T09:47:38.770Z,100320.97
2018-08-12T09:50:07.368Z,100322.66
2018-08-12T09:52:35.982Z,100313.09
2018-08-12T09:55:04.963Z,100314.83
2018-08-12T09:57:33.190Z,100311.30
2018-08-12T10:00:01.414Z,100311.70
2018-08-12T10:02:29.511Z,100301.80
2018-08-12T10:04:58.162Z,100300.00
2018-08-12T10:07:26.326Z,100299.01
2018-08-12T10:09:54.519Z,100301.09
2018-08-12T10:12:22.614Z,100285.87
2018-08-12T10:14:50.739Z,100295.38
2018-08-12T10:17:18.989Z,100281.52
2018-08-12T10:19:47.169Z,100281.44
2018-08-12T10:22:15.315Z,100279.24
2018-08-12T10:24:43.440Z,100281.34
2018-08-12T10:27:11.704Z,100279.70
2018-08-12T10:29:39.879Z,100270.01
2018-08-12T10:32:08.310Z,100267.30
2018-08-12T10:34:36.436Z,100260.73
2018-08-12T10:37:04.626Z,100265.83
2018-08-12T10:39:32.834Z,100256.45
2018-08-12T10:42:01.011Z,100250.17
2018-08-12T10:44:29.235Z,100249.18
2018-08-12T10:47:00.310Z,100251.59
2018-08-12T10:49:29.138Z,100256.15
2018-08-12T10:51:58.074Z,100249.81
2018-08-12T10:54:26.187Z,100240.86
2018-08-12T10:56:54.396Z,100228.64
2018-08-12T10:59:22.695Z,100232.89
2018-08-12T11:01:50.905Z,100227.98
2018-08-12T11:04:19.060Z,100218.96
2018-08-12T11:06:49.078Z,100215.75
2018-08-12T11:09:22.500Z,100215.53
2018-08-12T11:11:50.640Z,100213.64
2018-08-12T11:14:18.736Z,100214.91
2018-08-12T11:16:46.892Z,100211.95
2018-08-12T11:19:15.136Z,100203.86
2018-08-12T11:21:43.318Z,100197.37
2018-08-12T11:24:11.826Z,100196.03
2018-08-12T11:26:40.268Z,100193.22
2018-08-12T11:29:08.513Z,100190.41
2018-08-12T11:31:36.753Z,100176.72
2018-08-12T11:34:04.878Z,100186.60
2018-08-12T11:36:33.054Z,100181.66
2018-08-12T11:39:01.702Z,100172.77
2018-08-12T11:41:30.067Z,100160.49
2018-08-12T11:43:58.171Z,100161.10
2018-08-12T11:46:26.366Z,100164.75
2018-08-12T11:48:54.652Z,100154.84
2018-08-12T11:51:22.783Z,100144.95
2018-08-12T11:53:53.024Z,100139.81
2018-08-12T11:56:21.206Z,100138.94
2018-08-12T11:58:50.502Z,100129.48
2018-08-12T12:01:18.682Z,100117.97
2018-08-12T12:03:46.947Z,100121.38
2018-08-12T12:06:15.107Z,100117.64
2018-08-12T12:08:43.256Z,100111.92
2018-08-12T12:11:12.085Z,100108.80
2018-08-12T12:13:40.205Z,100109.25
2018-08-12T12:16:08.378Z,100106.34
2018-08-12T12:18:37.314Z,100091.23
2018-08-12T12:21:05.748Z,100096.82
2018-08-12T12:23:33.921Z,100095.60
2018-08-12T12:26:02.813Z,100092.86
2018-08-12T12:28:33.480Z,100081.48
2018-08-12T12:31:01.877Z,100081.48
2018-08-12T12:33:30.080Z,100075.50
2018-08-12T12:35:59.017Z,100079.28
2018-08-12T12:38:27.216Z,100069.97
2018-08-12T12:40:55.798Z,100065.84
2018-08-12T12:43:24.549Z,100058.37
2018-08-12T12:45:52.934Z,100054.10
2018-08-12T12:48:21.295Z,100051.90
2018-08-12T12:53:29.105Z,100045.66
2018-08-12T12:55:57.354Z,100031.58
2018-08-12T12:58:25.635Z,100034.81
2018-08-12T13:00:53.904Z,100030.30
2018-08-12T13:03:22.151Z,100022.39
2018-08-12T13:05:51.846Z,100006.48
2018-08-12T13:08:19.917Z,100004.38
2018-08-12T13:10:48.042Z,99995.88
2018-08-12T13:13:16.276Z,99995.45
2018-08-12T13:15:44.584Z,99991.61
2018-08-12T13:18:12.841Z,99986.08
2018-08-12T13:20:44.042Z,99981.97
2018-08-12T13:23:12.234Z,99981.85
2018-08-12T13:25:40.384Z,99980.41
2018-08-12T13:28:08.664Z,99976.28
2018-08-12T13:30:37.118Z,99974.95
2018-08-12T13:33:05.693Z,99964.50
2018-08-12T13:35:33.891Z,99957.73
2018-08-12T13:38:02.032Z,99960.72
2018-08-12T13:40:30.266Z,99961.50
2018-08-12T13:43:01.091Z,99959.56
2018-08-12T13:45:29.150Z,99950.98
2018-08-12T13:47:57.243Z,99944.05
2018-08-12T13:50:25.417Z,99938.06
2018-08-12T13:52:54.337Z,99938.59
2018-08-12T13:55:23.177Z,99939.67
2018-08-12T13:57:52.078Z,99934.02
2018-08-12T14:00:22.019Z,99926.23
2018-08-12T14:02:50.170Z,99920.86
2018-08-12T14:05:18.970Z,99914.58
2018-08-12T14:07:47.950Z,99908.59
2018-08-12T14:10:16.134Z,99904.72
2018-08-12T14:12:44.311Z,99897.09
2018-08-12T14:15:14.909Z,99891.70
2018-08-12T14:17:44.210Z,99886.66
2018-08-12T14:20:14.945Z,99882.91
2018-08-12T14:22:43.115Z,99881.08
2018-08-12T14:25:11.613Z,99880.52
2018-08-12T14:27:41.206Z,99867.42
2018-08-12T14:30:11.967Z,99860.05
2018-08-12T14:32:40.954Z,99861.43
2018-08-12T14:35:09.150Z,99858.34
2018-08-12T14:37:37.773Z,99849.16
2018-08-12T14:40:06.787Z,99859.52
2018-08-12T14:42:34.971Z,99852.33
2018-08-12T14:45:03.191Z,99844.67
2018-08-12T14:47:31.438Z,99827.52
2018-08-12T14:49:59.632Z,99828.38
2018-08-12T14:52:27.821Z,99826.30
2018-08-12T14:54:56.068Z,99825.94
2018-08-12T14:57:24.962Z,99825.39
2018-08-12T14:59:53.330Z,99823.28
2018-08-12T15:02:21.613Z,99818.28
2018-08-12T15:04:50.070Z,99821.95
2018-08-12T15:07:18.392Z,99808.67
2018-08-12T15:09:46.725Z,99808.42
2018-08-12T15:12:15.101Z,99811.30
2018-08-12T15:14:43.434Z,99807.80
2018-08-12T15:17:11.587Z,99811.33
2018-08-12T15:19:40.962Z,99805.77
2018-08-12T15:22:09.681Z,99800.80
2018-08-12T15:24:37.820Z,99794.55
2018-08-12T15:27:06.121Z,99790.09
2018-08-12T15:29:34.711Z,99787.55
2018-08-12T15:32:03.842Z,99777.92
2018-08-12T15:34:32.163Z,99784.58
2018-08-12T15:37:00.311Z,99775.53
2018-08-12T15:39:29.554Z,99770.95
2018-08-12T15:41:57.636Z,99773.98
2018-08-12T15:44:25.783Z,99765.29
2018-08-12T15:46:53.932Z,99768.41
2018-08-12T15:49:22.334Z,99753.79
2018-08-12T15:51:50.484Z,99760.14
2018-08-12T15:54:18.581Z,99747.38
2018-08-12T15:56:46.730Z,99748.86
2018-08-12T15:59:14.859Z,99742.64
2018-08-12T16:01:43.232Z,99755.33
2018-08-12T16:04:11.385Z,99744.98
2018-08-12T16:06:42.239Z,99735.58
2018-08-12T16:09:11.915Z,99740.56
2018-08-12T16:11:40.197Z,99736.17
2018-08-12T16:14:09.139Z,99734.20
2018-08-12T16:16:37.202Z,99729.98
2018-08-12T16:19:07.134Z,99720.85
2018-08-12T16:21:35.544Z,99718.82
2018-08-12T16:24:03.868Z,99717.94
2018-08-12T16:26:31.979Z,99722.04
2018-08-12T16:29:00.364Z,99720.66
2018-08-12T16:31:45.639Z,99718.47
2018-08-12T16:34:13.789Z,99724.13
2018-08-12T16:36:41.981Z,99712.55
2018-08-12T16:39:12.164Z,99713.96
2018-08-12T16:41:40.336Z,99710.11
2018-08-12T16:44:08.470Z,99714.27
2018-08-12T16:46:36.568Z,99715.96
2018-08-12T16:49:04.650Z,99711.36
2018-08-12T16:51:32.733Z,99699.23
2018-08-12T16:54:00.924Z,99709.77
2018-08-12T16:56:29.778Z,99694.36
2018-08-12T16:58:57.888Z,99699.24
2018-08-12T17:01:26.209Z,99697.45
2018-08-12T17:03:54.528Z,99695.26
2018-08-12T17:06:22.808Z,99679.44
2018-08-12T17:08:52.262Z,99682.34
2018-08-12T17:11:20.811Z,99691.43
2018-08-12T17:13:49.078Z,99681.30
2018-08-12T17:16:17.202Z,99682.11
2018-08-12T17:18:45.312Z,99673.59
2018-08-12T17:21:13.428Z,99673.65
2018-08-12T17:23:48.782Z,99676.80
2018-08-12T17:26:16.852Z,99688.34
2018-08-12T17:28:45.022Z,99673.66
2018-08-12T17:31:13.386Z,99675.70
2018-08-12T17:33:41.465Z,99674.81
2018-08-12T17:36:09.767Z,99666.67
2018-08-12T17:38:38.072Z,99656.53
2018-08-12T17:41:06.141Z,99658.61
2018-08-12T17:43:34.492Z,99652.92
2018-08-12T17:46:02.755Z,99650.44
2018-08-12T17:48:32.503Z,99652.63
2018-08-12T17:51:00.750Z,99646.72
2018-08-12T17:58:26.981Z,99649.88
2018-08-12T18:00:55.340Z,99648.76
2018-08-12T18:03:23.555Z,99639.89
2018-08-12T18:05:51.849Z,99649.77
2018-08-12T18:08:20.327Z,99651.56
2018-08-12T18:10:48.453Z,99644.95
2018-08-12T18:13:16.562Z,99652.19
2018-08-12T18:15:44.781Z,99653.35
2018-08-12T18:18:12.961Z,99654.58
2018-08-12T18:20:41.071Z,99652.34
2018-08-12T18:23:09.091Z,99652.18
2018-08-12T18:25:37.143Z,99654.83
2018-08-12T18:28:05.462Z,99652.48
2018-08-12T18:30:33.614Z,99660.20
2018-08-12T18:33:01.718Z,99658.39
2018-08-12T18:35:30.125Z,99656.66
2018-08-12T18:37:58.218Z,99658.58
2018-08-12T18:40:26.326Z,99658.77
2018-08-12T18:42:54.461Z,99655.20
2018-08-12T18:45:22.571Z,99653.05
2018-08-12T18:47:50.909Z,99660.42
2018-08-12T18:50:19.086Z,99658.51
2018-08-12T18:52:47.213Z,99659.73
2018-08-12T18:55:15.432Z,99656.13
2018-08-12T18:57:43.528Z,99659.54
2018-08-12T19:00:13.182Z,99660.06
2018-08-12T19:02:41.607Z,99660.14
2018-08-12T19:05:11.002Z,99658.58
2018-08-12T19:07:39.330Z,99657.56
2018-08-12T19:10:08.637Z,99656.25
2018-08-12T19:12:36.846Z,99649.86
2018-08-12T19:15:06.866Z,99658.72
2018-08-12T19:17:34.991Z,99665.65
2018-08-12T19:20:03.331Z,99662.42
2018-08-12T19:22:31.487Z,99662.72
2018-08-12T19:25:00.426Z,99666.48
2018-08-12T19:27:28.742Z,99668.44
2018-08-12T19:29:56.902Z,99663.27
2018-08-12T19:32:25.031Z,99668.94
2018-08-12T19:34:53.151Z,99669.86
2018-08-12T19:37:21.769Z,99665.83
2018-08-12T19:39:49.878Z,99664.91
2018-08-12T19:42:18.114Z,99667.77
2018-08-12T19:44:46.210Z,99665.66
2018-08-12T19:47:14.290Z,99661.55
2018-08-12T19:49:42.558Z,99671.13
2018-08-12T19:52:10.758Z,99661.02
2018-08-12T19:54:39.062Z,99661.45
2018-08-12T19:57:07.522Z,99663.73
2018-08-12T19:59:35.649Z,99663.35
2018-08-12T20:02:03.924Z,99662.04
2018-08-12T20:04:32.020Z,99656.34
2018-08-12T20:07:00.496Z,99653.23
2018-08-12T20:09:28.596Z,99653.80
2018-08-12T20:11:56.799Z,99659.75
2018-08-12T20:14:24.951Z,99653.16
2018-08-12T20:16:54.086Z,99654.16
2018-08-12T20:19:22.388Z,99651.73
2018-08-12T20:21:50.486Z,99649.81
2018-08-12T20:24:18.698Z,99651.66
2018-08-12T20:26:46.750Z,99648.21
2018-08-12T20:29:14.950Z,99646.98
2018-08-12T20:31:43.330Z,99647.86
2018-08-12T20:34:11.606Z,99650.21
2018-08-12T20:36:39.856Z,99646.62
2018-08-12T20:39:09.950Z,99640.13
2018-08-12T20:41:38.188Z,99637.03
2018-08-12T20:44:06.331Z,99639.83
2018-08-12T20:46:34.542Z,99640.52
2018-08-12T20:49:02.721Z,99637.26
2018-08-12T20:51:31.346Z,99640.85
2018-08-12T20:53:59.619Z,99639.86
2018-08-12T20:56:27.810Z,99640.08
2018-08-12T20:58:56.006Z,99630.46
2018-08-12T21:01:24.150Z,99637.55
2018-08-12T21:03:52.323Z,99633.59
2018-08-12T21:06:20.440Z,99634.77
2018-08-12T21:08:48.573Z,99635.27
2018-08-12T21:11:16.914Z,99636.39
2018-08-12T21:13:45.033Z,99629.83
2018-08-12T21:16:13.166Z,99623.52
2018-08-12T21:18:41.294Z,99619.18
2018-08-12T21:21:09.479Z,99618.09
2018-08-12T21:23:37.573Z,99619.87
2018-08-12T21:26:06.831Z,99624.44
2018-08-12T21:28:35.166Z,99617.38
2018-08-12T21:31:03.688Z,99618.51
2018-08-12T21:33:31.971Z,99620.09
2018-08-12T21:36:01.649Z,99610.98
2018-08-12T21:38:30.062Z,99612.71
2018-08-12T21:40:58.308Z,99607.94
2018-08-12T21:43:27.241Z,99612.34
2018-08-12T21:45:55.376Z,99610.49
2018-08-12T21:48:23.550Z,99602.95
2018-08-12T21:50:51.679Z,99602.59
2018-08-12T21:53:19.870Z,99599.25
2018-08-12T21:55:48.219Z,99592.13
2018-08-12T21:58:22.919Z,99594.10
2018-08-12T22:00:56.201Z,99596.17
2018-08-12T22:03:29.192Z,99593.57
2018-08-12T22:05:57.348Z,99595.78
2018-08-12T22:08:25.393Z,99598.55
2018-08-12T22:10:53.686Z,99600.65
2018-08-12T22:13:22.054Z,99599.45
2018-08-12T22:15:50.171Z,99607.61
2018-08-12T22:18:18.354Z,99605.37
2018-08-12T22:20:46.665Z,99604.83
2018-08-12T22:23:14.818Z,99602.03
2018-08-12T22:25:43.153Z,99604.20
2018-08-12T22:28:11.239Z,99607.13
2018-08-12T22:30:39.639Z,99600.30
2018-08-12T22:33:07.786Z,99604.06
2018-08-12T22:35:36.076Z,99610.12
2018-08-12T22:38:04.195Z,99602.28
2018-08-12T22:40:32.401Z,99598.84
2018-08-12T22:43:03.559Z,99597.58
2018-08-12T22:45:31.833Z,99600.29
2018-08-12T22:47:59.937Z,99594.98
2018-08-12T22:50:28.421Z,99594.12
2018-08-12T22:52:56.629Z,99594.02
2018-08-12T22:55:24.774Z,99592.92
2018-08-12T22:57:53.013Z,99588.48
2018-08-12T23:00:21.315Z,99582.30
2018-08-12T23:02:49.758Z,99584.53
2018-08-12T23:05:18.453Z,99584.44
2018-08-12T23:07:46.731Z,99587.28
2018-08-12T23:10:14.934Z,99586.34
2018-08-12T23:12:43.095Z,99583.16
2018-08-12T23:15:22.546Z,99581.20
2018-08-12T23:17:50.709Z,99575.19
2018-08-12T23:20:18.821Z,99573.38
2018-08-12T23:22:46.955Z,99570.38
2018-08-12T23:25:15.064Z,99565.25
2018-08-12T23:27:43.666Z,99564.09
2018-08-12T23:30:12.040Z,99562.93
2018-08-12T23:32:40.552Z,99562.65
2018-08-12T23:35:09.037Z,99567.88
2018-08-12T23:37:37.279Z,99572.24
2018-08-12T23:40:06.333Z,99570.47
2018-08-12T23:45:12.397Z,99566.02
2018-08-12T23:47:40.485Z,99570.28
2018-08-12T23:50:09.119Z,99562.99
2018-08-12T23:52:37.270Z,99565.75
2018-08-12T23:55:05.536Z,99567.63
2018-08-12T23:57:33.630Z,99563.30
